createdAt,value
2022-10-01T00:02:41.673Z,85.22
2022-10-01T00:07:45.305Z,85.09
2022-10-01T00:12:48.570Z,85.31
2022-10-01T00:17:50.089Z,86.76
2022-10-01T00:22:52.357Z,85.74
2022-10-01T00:27:54.016Z,84.53
2022-10-01T00:32:55.743Z,84.48
2022-10-01T00:37:57.575Z,84.29
2022-10-01T00:42:59.108Z,84.83
2022-10-01T00:48:01.110Z,85.16
2022-10-01T00:53:08.916Z,86.48
2022-10-01T00:58:12.701Z,84.53
2022-10-01T01:03:15.013Z,84.93
2022-10-01T01:08:17.178Z,84.69
2022-10-01T01:13:39.405Z,84.21
2022-10-01T01:18:52.184Z,85.27
2022-10-01T01:23:59.418Z,84.50
2022-10-01T01:29:07.091Z,84.37
2022-10-01T01:34:13.223Z,83.89
2022-10-01T01:39:16.151Z,84.71
2022-10-01T01:44:24.626Z,84.68
2022-10-01T01:49:26.261Z,86.00
2022-10-01T01:54:29.510Z,85.31
2022-10-01T01:59:33.858Z,84.89
2022-10-01T02:04:47.341Z,85.81
2022-10-01T02:10:11.084Z,86.28
2022-10-01T02:15:41.952Z,85.76
2022-10-01T02:20:50.614Z,83.40
2022-10-01T02:25:57.932Z,85.47
2022-10-01T02:31:00.077Z,85.36
2022-10-01T02:36:04.863Z,85.45
2022-10-01T02:41:08.206Z,86.94
2022-10-01T02:46:21.498Z,84.98
2022-10-01T02:51:22.983Z,83.99
2022-10-01T02:56:48.819Z,85.83
2022-10-01T03:01:50.922Z,86.52
2022-10-01T03:06:53.145Z,85.28
2022-10-01T03:11:55.102Z,87.38
2022-10-01T03:16:56.643Z,86.33
2022-10-01T03:21:58.206Z,85.34
2022-10-01T03:27:00.084Z,86.13
2022-10-01T03:32:02.012Z,86.88
2022-10-01T03:37:04.092Z,85.89
2022-10-01T03:42:05.943Z,86.14
2022-10-01T03:47:07.515Z,87.38
2022-10-01T03:52:09.056Z,87.45
2022-10-01T03:57:10.594Z,87.62
2022-10-01T04:02:12.255Z,85.77
2022-10-01T04:07:13.934Z,86.43
2022-10-01T04:12:15.522Z,86.33
2022-10-01T04:17:17.187Z,86.01
2022-10-01T04:22:18.674Z,86.49
2022-10-01T04:27:20.160Z,87.14
2022-10-01T04:32:22.201Z,87.46
2022-10-01T04:37:24.226Z,87.63
2022-10-01T04:42:25.759Z,87.37
2022-10-01T04:47:27.323Z,88.34
2022-10-01T04:52:29.463Z,86.55
2022-10-01T04:57:31.038Z,86.67
2022-10-01T05:02:34.526Z,86.85
2022-10-01T05:07:36.693Z,88.10
2022-10-01T05:12:38.210Z,85.91
2022-10-01T05:17:39.844Z,86.28
2022-10-01T05:22:41.437Z,87.30
2022-10-01T05:27:43.125Z,87.14
2022-10-01T05:32:53.731Z,86.82
2022-10-01T05:37:57.197Z,86.08
2022-10-01T05:42:59.769Z,85.37
2022-10-01T05:48:05.953Z,86.58
2022-10-01T05:53:08.427Z,87.02
2022-10-01T05:58:16.599Z,86.37
2022-10-01T06:03:18.141Z,86.81
2022-10-01T06:08:19.666Z,86.87
2022-10-01T06:13:21.158Z,85.53
2022-10-01T06:18:22.868Z,85.44
2022-10-01T06:23:24.399Z,86.27
2022-10-01T06:28:28.177Z,86.44
2022-10-01T06:33:30.020Z,86.19
2022-10-01T06:38:31.532Z,86.82
2022-10-01T06:43:33.395Z,85.27
2022-10-01T06:48:36.546Z,85.17
2022-10-01T06:53:38.302Z,85.01
2022-10-01T06:58:39.842Z,84.62
2022-10-01T07:03:41.354Z,84.70
2022-10-01T07:08:42.869Z,84.75
2022-10-01T07:13:44.446Z,84.46
2022-10-01T07:18:45.974Z,84.39
2022-10-01T07:23:48.446Z,84.71
2022-10-01T07:28:49.949Z,84.97
2022-10-01T07:33:57.539Z,84.74
2022-10-01T07:39:00.681Z,84.46
2022-10-01T07:44:03.386Z,85.33
2022-10-01T07:49:05.186Z,85.54
2022-10-01T07:54:06.712Z,83.79
2022-10-01T07:59:10.079Z,84.27
2022-10-01T08:04:29.971Z,83.83
2022-10-01T08:09:31.601Z,83.65
2022-10-01T08:14:33.148Z,83.38
2022-10-01T08:19:36.270Z,83.53
2022-10-01T08:24:37.816Z,83.27
2022-10-01T08:29:43.236Z,82.68
2022-10-01T08:34:45.085Z,82.25
2022-10-01T08:39:46.685Z,82.00
2022-10-01T08:44:49.073Z,81.82
2022-10-01T08:49:59.347Z,81.61
2022-10-01T08:55:04.726Z,81.03
2022-10-01T09:00:12.246Z,80.27
2022-10-01T09:05:27.394Z,79.53
2022-10-01T09:10:42.182Z,78.71
2022-10-01T09:16:02.001Z,78.14
2022-10-01T09:21:12.162Z,78.20
2022-10-01T09:26:13.731Z,78.11
2022-10-01T09:31:19.955Z,78.17
2022-10-01T09:36:37.787Z,78.26
2022-10-01T09:41:39.357Z,77.56
2022-10-01T09:46:46.109Z,76.37
2022-10-01T09:51:54.610Z,75.63
2022-10-01T09:57:16.396Z,73.59
2022-10-01T10:02:23.939Z,72.58
2022-10-01T10:07:25.702Z,71.64
2022-10-01T10:12:29.893Z,70.94
2022-10-01T10:17:31.434Z,72.35
2022-10-01T10:22:33.065Z,71.40
2022-10-01T10:27:36.423Z,70.63
2022-10-01T10:32:39.656Z,70.20
2022-10-01T10:37:50.251Z,70.59
2022-10-01T10:42:55.959Z,71.16
2022-10-01T10:47:57.889Z,72.29
2022-10-01T10:52:59.640Z,72.71
2022-10-01T10:58:10.939Z,73.88
2022-10-01T11:03:14.849Z,75.33
2022-10-01T11:08:20.753Z,76.24
2022-10-01T11:13:40.773Z,77.52
2022-10-01T11:18:45.149Z,78.86
2022-10-01T11:24:08.081Z,79.13
2022-10-01T11:29:17.770Z,83.71
2022-10-01T11:35:02.263Z,85.44
2022-10-01T11:40:15.354Z,85.00
2022-10-01T11:45:21.365Z,87.82
2022-10-01T11:50:29.005Z,87.41
2022-10-01T11:56:00.345Z,86.46
2022-10-01T12:01:11.615Z,87.18
2022-10-01T12:06:14.775Z,88.49
2022-10-01T12:11:25.871Z,85.98
2022-10-01T12:16:57.183Z,87.67
2022-10-01T12:22:15.458Z,87.83
2022-10-01T12:27:32.794Z,87.59
2022-10-01T12:33:05.287Z,87.24
2022-10-01T12:38:13.971Z,86.34
2022-10-01T12:43:39.218Z,86.60
2022-10-01T12:49:10.498Z,87.46
2022-10-01T12:54:36.788Z,88.25
2022-10-01T12:59:44.485Z,86.13
2022-10-01T13:05:05.047Z,86.26
2022-10-01T13:10:25.271Z,88.49
2022-10-01T13:15:33.341Z,89.66
2022-10-01T13:20:43.713Z,90.83
2022-10-01T13:25:51.389Z,89.95
2022-10-01T13:31:01.759Z,90.27
2022-10-01T13:36:05.255Z,91.04
2022-10-01T13:41:22.545Z,91.76
2022-10-01T13:46:31.130Z,91.37
2022-10-01T13:51:37.745Z,92.23
2022-10-01T13:56:39.290Z,93.96
2022-10-01T14:01:42.282Z,93.77
2022-10-01T14:07:14.517Z,95.02
2022-10-01T14:12:52.671Z,95.98
2022-10-01T14:17:55.796Z,95.35
2022-10-01T14:22:59.917Z,93.50
2022-10-01T14:28:35.891Z,94.76
2022-10-01T14:34:16.391Z,95.18
2022-10-01T14:39:21.861Z,94.97
2022-10-01T14:44:24.725Z,94.08
2022-10-01T14:49:31.654Z,93.66
2022-10-01T14:54:51.466Z,93.15
2022-10-01T14:59:53.422Z,93.54
2022-10-01T15:04:56.902Z,91.90
2022-10-01T15:10:08.419Z,91.78
2022-10-01T15:15:28.192Z,90.97
2022-10-01T15:20:29.876Z,90.03
2022-10-01T15:25:31.789Z,89.01
2022-10-01T15:30:36.107Z,89.08
2022-10-01T15:35:37.721Z,88.66
2022-10-01T15:40:42.649Z,87.93
2022-10-01T15:45:44.298Z,87.73
2022-10-01T15:51:00.497Z,86.91
2022-10-01T15:56:10.503Z,87.04
2022-10-01T16:01:23.295Z,86.97
2022-10-01T16:06:27.563Z,86.13
2022-10-01T16:11:32.813Z,86.28
2022-10-01T16:16:34.541Z,86.78
2022-10-01T16:21:40.297Z,87.19
2022-10-01T16:26:42.087Z,86.47
2022-10-01T16:31:44.626Z,86.65
2022-10-01T16:36:46.779Z,86.62
2022-10-01T16:42:06.233Z,86.55
2022-10-01T16:47:11.801Z,86.27
2022-10-01T16:52:14.210Z,85.76
2022-10-01T16:57:16.571Z,85.90
2022-10-01T17:02:18.258Z,86.14
2022-10-01T17:07:19.781Z,86.08
2022-10-01T17:12:21.599Z,86.02
2022-10-01T17:17:23.063Z,85.58
2022-10-01T17:22:25.396Z,85.91
2022-10-01T17:27:26.959Z,85.92
2022-10-01T17:32:28.520Z,86.02
2022-10-01T17:37:30.029Z,86.10
2022-10-01T17:42:32.844Z,86.44
2022-10-01T17:47:34.366Z,86.33
2022-10-01T17:52:35.841Z,86.46
2022-10-01T17:57:37.317Z,86.13
2022-10-01T18:02:43.313Z,85.80
2022-10-01T18:07:45.366Z,85.92
2022-10-01T18:12:46.844Z,85.78
2022-10-01T18:17:52.196Z,85.94
2022-10-01T18:22:53.727Z,86.27
2022-10-01T18:27:55.255Z,85.78
2022-10-01T18:32:57.172Z,85.96
2022-10-01T18:38:03.698Z,85.61
2022-10-01T18:43:08.037Z,85.90
2022-10-01T18:48:21.798Z,85.52
2022-10-01T18:53:28.034Z,85.11
2022-10-01T18:58:38.032Z,85.58
2022-10-01T19:04:17.646Z,85.64
2022-10-01T19:09:31.378Z,85.39
2022-10-01T19:14:48.106Z,84.82
2022-10-01T19:19:57.336Z,85.56
2022-10-01T19:25:09.338Z,84.62
2022-10-01T19:30:15.841Z,85.37
2022-10-01T19:35:21.416Z,85.01
2022-10-01T19:40:45.887Z,84.83
2022-10-01T19:45:47.572Z,85.04
2022-10-01T19:51:02.155Z,85.20
2022-10-01T19:56:04.458Z,85.76
2022-10-01T20:01:06.060Z,85.75
2022-10-01T20:06:19.778Z,86.39
2022-10-01T20:11:30.784Z,86.08
2022-10-01T20:16:45.245Z,86.30
2022-10-01T20:22:18.592Z,86.59
2022-10-01T20:27:47.063Z,86.23
2022-10-01T20:32:56.190Z,86.64
2022-10-01T20:38:08.866Z,86.28
2022-10-01T20:43:15.825Z,85.96
2022-10-01T20:48:24.386Z,86.08
2022-10-01T20:53:40.762Z,85.46
2022-10-01T20:59:02.498Z,85.28
2022-10-01T21:04:07.618Z,84.88
2022-10-01T21:09:20.378Z,85.09
2022-10-01T21:14:34.480Z,85.44
2022-10-01T21:19:38.825Z,85.10
2022-10-01T21:24:46.367Z,84.52
2022-10-01T21:30:08.402Z,85.16
2022-10-01T21:35:30.733Z,84.95
2022-10-01T21:40:47.558Z,85.00
2022-10-01T21:46:02.344Z,85.40
2022-10-01T21:51:51.361Z,84.75
2022-10-01T21:57:07.290Z,84.70
2022-10-01T22:02:30.465Z,84.23
2022-10-01T22:07:58.504Z,84.06
2022-10-01T22:13:04.635Z,85.05
2022-10-01T22:18:10.604Z,85.12
2022-10-01T22:23:16.967Z,85.30
2022-10-01T22:28:22.978Z,85.25
2022-10-01T22:33:29.735Z,85.14
2022-10-01T22:38:37.034Z,85.49
2022-10-01T22:43:40.409Z,84.78
2022-10-01T22:49:10.616Z,85.48
2022-10-01T22:54:24.087Z,85.73
2022-10-01T22:59:47.221Z,85.61
2022-10-01T23:05:12.171Z,85.32
2022-10-01T23:10:18.239Z,85.22
2022-10-01T23:15:45.853Z,85.37
2022-10-01T23:20:54.101Z,85.58
2022-10-01T23:26:22.394Z,85.16
2022-10-01T23:31:45.428Z,86.00
2022-10-01T23:36:49.354Z,85.45
2022-10-01T23:41:58.503Z,86.39
2022-10-01T23:47:03.263Z,86.29
2022-10-01T23:52:39.973Z,85.77
2022-10-01T23:57:42.147Z,86.79
